Terminal Aerodrome Forecast
Issued by NWS Grand Forks, ND

Home | Current Version | Previous Version | Text Only | Print | Product List | Glossary Off
Versions: 1 2 3 4 5 6 7 8 9 10 11 12 13 14 15 16 17 18

000
FTUS43 KFGF 211740
TAFFAR
TAF
KFAR 211740Z 2118/2218 19008KT P6SM SCT200
     FM212000 22006KT P6SM BKN200
     FM220300 VRB05KT P6SM BKN150
     FM221200 21006KT P6SM OVC100
     FM221600 30010KT 2SM BR OVC050=

USA.gov is the U.S. government's official web portal to all federal, state and local government web resources and services.